This is the latest recevied weather packets stored in our database for station/object WMKN. If no packets are shown the sender has not sent any weather packets the latest 10 day(s).
| Time | Temp. | Humidity | Pressure | Rain* | Wind** | Luminosity | Snow |
|---|---|---|---|---|---|---|---|
| 1778274642 | 25° C | 94% | 1008 hPa | - | - | - | - |
| 1778271042 | 25° C | 94% | 1008 hPa | - | - | - | - |
| 1778267442 | 25° C | 94% | 1008 hPa | - | - | - | - |
| 1778263856 | 25° C | 10% | - | - | - | - | - |
| 1778260238 | 25° C | 94% | 1010 hPa | - | - | - | - |
| 1778256642 | 25° C | 94% | 1011 hPa | - | - | - | - |
| 1778253612 | 27.78° C | 83% | 1010 hPa | - | - | - | - |
| 1778253041 | 27.78° C | 83% | 1010 hPa | - | - | - | - |
| 1778249454 | 30° C | 79% | 1009 hPa | - | - | - | - |
| 1778245841 | 30° C | 79% | 1008 hPa | - | - | - | - |
| 1778242241 | 30.56° C | 74% | 1007 hPa | - | - | - | - |
| 1778238641 | 30.56° C | 74% | 1006 hPa | - | - | - | - |
| 1778235053 | 32.78° C | 66% | 1005 hPa | - | - | - | - |
| 1778231441 | 32.78° C | 66% | 1005 hPa | - | - | - | - |
| 1778227841 | 33.89° C | 63% | 1005 hPa | - | - | - | - |
| 1778224242 | 33.89° C | 63% | 1006 hPa | - | - | - | - |
| 1778220653 | 33.89° C | 59% | 1007 hPa | - | - | - | - |
| 1778217041 | 33.89° C | 63% | 1008 hPa | - | - | - | - |
| 1778213440 | 32.78° C | 66% | 1008 hPa | - | - | - | - |
| 1778209840 | 32.78° C | 66% | 1009 hPa | - | - | - | - |
| 1778206247 | 30.56° C | 74% | 1009 hPa | - | - | - | - |
| 1778202640 | 30° C | 74% | 1009 hPa | - | - | - | - |
| 1778199040 | 26.67° C | 88% | 1009 hPa | - | - | - | - |
| 1778195440 | 25.56° C | 94% | 1007 hPa | - | - | - | - |
| 1778191842 | 26.67° C | 88% | 1007 hPa | - | - | - | - |
* Rain since midnight (hover to see other rain measurements)
** Current wind speed in m/s (hover to see current wind gust speed)